Hovedside
METAR-TAF:

METAR-TAF

Lufthavner :

Oslo lufthavn (Gardermoen)

Oslo, Norge

breddegrad: 60-12N, lengdegrad: 011-05E, høyde over havet: 208 m

Gjeldene værobservasjon

Denne rapporten ble laget for 34 minutter siden, klokken 10:50 UTC
Vind 11 kt fra Sør-sørvest
Temperatur 3°C
Luftfuktighet 48%
Trykk 1004 hPa
Sikt 10 km eller mer
ingen skyer under 1500 m og ingen bygeskyer

METAR: ENGM 241050Z 20011KT CAVOK 03/M07 Q1004 NOSIG

Tid: 12:24 (11:24 UTC)

Varsel

Varsel gyldig fra 24. klokken 06 UTC til 25. klokken 06 UTC
Vind 8 kt fra Nordvest
Sikt 10 km eller mer
ingen skyer under 1500 m og ingen bygeskyer
Blir
fra 24. klokken 06 UTC til 24. klokken 08 UTC
Vind 10 kt fra Sør
Blir
fra 24. klokken 15 UTC til 24. klokken 17 UTC
Vind 5 kt fra skiftende retning
Blir
fra 25. klokken 02 UTC til 25. klokken 04 UTC
Vind 10 kt fra Nord

TAF: ENGM 2406/2506 32008KT CAVOK BECMG 2406/2408 19010KT BECMG 2415/2417 VRB05KT BECMG 2502/2504 01010KT

Værobservasjoner og værvarsel for over 4000 flyplasser (METAR- og TAF-rapporter).

Tilgjengelige stasjoner er representert av de røde og gule prikkene på kartet.

Hold musepekeren over prikken for å se navnet på stasjonen.

Klikk så for å se værobservasjoner og -varsler.

For å forandre kartet kan du klikke på den grønne knappen med svart kryss for å zoome inn, på den grønne knappen med strek for å zoome ut, eller på de grønne pilene for å se tilstøtende kart.


METAR-TAF: